createdAt,value
2018-06-10T00:00:49.334Z,22.61
2018-06-10T00:01:49.245Z,22.66
2018-06-10T00:03:42.095Z,22.66
2018-06-10T00:04:41.986Z,22.61
2018-06-10T00:06:34.775Z,22.54
2018-06-10T00:07:34.726Z,22.49
2018-06-10T00:09:27.576Z,22.30
2018-06-10T00:10:27.502Z,22.27
2018-06-10T00:12:20.300Z,22.15
2018-06-10T00:13:20.240Z,22.08
2018-06-10T00:15:13.047Z,22.04
2018-06-10T00:16:12.986Z,22.01
2018-06-10T00:18:05.792Z,22.06
2018-06-10T00:19:05.729Z,22.06
2018-06-10T00:20:58.669Z,22.12
2018-06-10T00:21:58.589Z,22.15
2018-06-10T00:23:51.440Z,22.14
2018-06-10T00:24:51.342Z,22.15
2018-06-10T00:26:44.140Z,22.19
2018-06-10T00:27:44.095Z,22.11
2018-06-10T00:29:36.880Z,21.99
2018-06-10T00:30:36.792Z,21.90
2018-06-10T00:32:29.576Z,21.85
2018-06-10T00:33:29.516Z,21.77
2018-06-10T00:35:22.354Z,21.85
2018-06-10T00:36:22.293Z,21.96
2018-06-10T00:38:15.065Z,21.66
2018-06-10T00:39:15.007Z,21.67
2018-06-10T00:41:07.798Z,21.66
2018-06-10T00:42:07.725Z,21.73
2018-06-10T00:44:00.523Z,21.66
2018-06-10T00:45:00.445Z,21.70
2018-06-10T00:46:53.250Z,21.71
2018-06-10T00:47:53.168Z,21.74
2018-06-10T00:49:45.953Z,21.70
2018-06-10T00:50:45.891Z,21.67
2018-06-10T00:52:38.700Z,21.66
2018-06-10T00:53:38.640Z,21.67
2018-06-10T00:55:31.405Z,21.75
2018-06-10T00:56:31.355Z,21.67
2018-06-10T00:58:24.156Z,21.70
2018-06-10T00:59:24.080Z,21.67
2018-06-10T01:01:16.878Z,21.55
2018-06-10T01:02:16.819Z,21.49
2018-06-10T01:04:09.637Z,21.48
2018-06-10T01:05:09.529Z,21.49
2018-06-10T01:07:02.330Z,21.58
2018-06-10T01:08:02.256Z,21.61
2018-06-10T01:09:55.041Z,21.64
2018-06-10T01:10:54.982Z,21.58
2018-06-10T01:12:47.802Z,21.63
2018-06-10T01:13:47.713Z,21.51
2018-06-10T01:15:40.507Z,21.40
2018-06-10T01:16:40.431Z,21.36
2018-06-10T01:18:33.339Z,21.31
2018-06-10T01:19:33.156Z,21.36
2018-06-10T01:21:25.929Z,21.21
2018-06-10T01:22:25.874Z,21.27
2018-06-10T01:24:18.685Z,21.24
2018-06-10T01:25:18.601Z,21.16
2018-06-10T01:27:11.385Z,21.12
2018-06-10T01:28:11.312Z,21.19
2018-06-10T01:30:04.108Z,21.22
2018-06-10T01:31:04.048Z,21.28
2018-06-10T01:32:56.822Z,21.22
2018-06-10T01:33:56.759Z,21.21
2018-06-10T01:35:49.556Z,21.22
2018-06-10T01:36:49.478Z,21.30
2018-06-10T01:38:42.284Z,21.26
2018-06-10T01:39:42.190Z,21.22
2018-06-10T01:41:34.971Z,21.30
2018-06-10T01:42:34.909Z,21.18
2018-06-10T01:44:27.705Z,20.96
2018-06-10T01:45:27.626Z,20.88
2018-06-10T01:47:20.413Z,20.97
2018-06-10T01:48:20.347Z,20.98
2018-06-10T01:50:13.158Z,20.91
2018-06-10T01:51:13.066Z,20.88
2018-06-10T01:53:05.876Z,20.90
2018-06-10T01:54:05.808Z,20.81
2018-06-10T01:55:58.616Z,20.75
2018-06-10T01:56:58.533Z,20.73
2018-06-10T01:58:51.321Z,20.60
2018-06-10T01:59:51.263Z,20.57
2018-06-10T02:01:44.072Z,20.63
2018-06-10T02:02:43.990Z,20.56
2018-06-10T02:04:36.796Z,20.61
2018-06-10T02:05:36.705Z,20.69
2018-06-10T02:07:29.505Z,20.78
2018-06-10T02:08:29.446Z,20.66
2018-06-10T02:10:22.229Z,20.64
2018-06-10T02:11:22.159Z,20.69
2018-06-10T02:13:14.940Z,20.63
2018-06-10T02:14:14.874Z,20.68
2018-06-10T02:16:07.694Z,20.78
2018-06-10T02:17:07.617Z,20.79
2018-06-10T02:19:00.419Z,20.66
2018-06-10T02:20:00.340Z,20.66
2018-06-10T02:21:53.129Z,20.63
2018-06-10T02:22:53.069Z,20.57
2018-06-10T02:24:45.876Z,20.71
2018-06-10T02:25:45.779Z,20.56
2018-06-10T02:27:38.569Z,20.57
2018-06-10T02:28:38.547Z,20.60
2018-06-10T02:30:31.286Z,20.50
2018-06-10T02:31:31.221Z,20.57
2018-06-10T02:33:24.023Z,20.51
2018-06-10T02:34:23.934Z,20.58
2018-06-10T02:36:16.729Z,20.56
2018-06-10T02:37:16.659Z,20.60
2018-06-10T02:39:09.447Z,20.42
2018-06-10T02:40:09.382Z,20.38
2018-06-10T02:42:02.205Z,20.35
2018-06-10T02:43:02.116Z,20.27
2018-06-10T02:44:54.881Z,20.20
2018-06-10T02:45:54.832Z,20.23
2018-06-10T02:47:47.626Z,20.22
2018-06-10T02:48:47.553Z,20.22
2018-06-10T02:50:40.339Z,20.05
2018-06-10T02:51:40.277Z,20.07
2018-06-10T02:53:33.072Z,20.02
2018-06-10T02:54:32.989Z,19.98
2018-06-10T02:56:25.792Z,19.98
2018-06-10T02:57:25.738Z,19.95
2018-06-10T02:59:18.526Z,19.94
2018-06-10T03:00:18.469Z,20.00
2018-06-10T03:02:11.237Z,19.97
2018-06-10T03:03:11.195Z,20.02
2018-06-10T03:05:03.971Z,20.01
2018-06-10T03:06:03.898Z,20.05
2018-06-10T03:07:56.703Z,20.07
2018-06-10T03:08:56.619Z,20.05
2018-06-10T03:10:49.393Z,20.23
2018-06-10T03:11:49.335Z,20.23
2018-06-10T03:13:42.112Z,20.33
2018-06-10T03:14:42.042Z,20.40
2018-06-10T03:16:34.806Z,20.50
2018-06-10T03:17:34.743Z,20.33
2018-06-10T03:19:27.588Z,20.19
2018-06-10T03:20:27.520Z,20.16
2018-06-10T03:22:20.306Z,20.22
2018-06-10T03:23:20.244Z,20.31
2018-06-10T03:25:13.030Z,20.31
2018-06-10T03:26:12.963Z,20.40
2018-06-10T03:28:05.722Z,20.54
2018-06-10T03:29:05.665Z,20.54
2018-06-10T03:30:58.482Z,20.64
2018-06-10T03:31:58.414Z,20.73
2018-06-10T03:33:51.203Z,20.75
2018-06-10T03:34:51.145Z,20.71
2018-06-10T03:36:43.950Z,20.88
2018-06-10T03:37:43.920Z,20.85
2018-06-10T03:39:36.729Z,20.94
2018-06-10T03:40:36.673Z,20.97
2018-06-10T03:42:29.474Z,21.15
2018-06-10T03:43:29.406Z,21.22
2018-06-10T03:45:22.187Z,21.37
2018-06-10T03:46:22.116Z,21.40
2018-06-10T03:48:14.877Z,21.58
2018-06-10T03:49:14.819Z,21.66
2018-06-10T03:51:07.609Z,21.66
2018-06-10T03:52:07.539Z,21.73
2018-06-10T03:54:00.356Z,21.73
2018-06-10T03:55:00.297Z,21.75
2018-06-10T03:56:53.075Z,21.82
2018-06-10T03:57:53.006Z,21.89
2018-06-10T03:59:45.772Z,21.83
2018-06-10T04:00:45.716Z,21.91
2018-06-10T04:02:38.517Z,21.99
2018-06-10T04:03:38.443Z,21.94
2018-06-10T04:05:31.266Z,22.09
2018-06-10T04:06:31.199Z,22.11
2018-06-10T04:08:24.004Z,21.99
2018-06-10T04:09:23.941Z,22.08
2018-06-10T04:11:16.770Z,22.17
2018-06-10T04:12:16.709Z,22.15
2018-06-10T04:14:09.502Z,22.29
2018-06-10T04:15:09.441Z,22.29
2018-06-10T04:17:02.262Z,22.35
2018-06-10T04:18:02.189Z,22.38
2018-06-10T04:19:55.005Z,22.45
2018-06-10T04:20:54.939Z,22.49
2018-06-10T04:22:47.778Z,22.86
2018-06-10T04:23:47.649Z,22.97
2018-06-10T04:25:40.421Z,23.31
2018-06-10T04:26:40.366Z,23.47
2018-06-10T04:28:33.146Z,23.71
2018-06-10T04:29:33.084Z,23.77
2018-06-10T04:31:25.911Z,24.21
2018-06-10T04:32:25.845Z,24.27
2018-06-10T04:34:18.645Z,24.16
2018-06-10T04:35:18.579Z,24.06
2018-06-10T04:37:11.382Z,24.44
2018-06-10T04:38:11.327Z,24.52
2018-06-10T04:40:04.140Z,24.79
2018-06-10T04:41:04.074Z,25.01
2018-06-10T04:42:56.862Z,25.24
2018-06-10T04:43:56.787Z,25.07
2018-06-10T04:45:49.556Z,24.94
2018-06-10T04:46:49.507Z,24.97
2018-06-10T04:48:42.289Z,25.02
2018-06-10T04:49:42.242Z,25.22
2018-06-10T04:51:35.034Z,25.23
2018-06-10T04:52:34.979Z,25.27
2018-06-10T04:54:27.760Z,25.71
2018-06-10T04:55:27.704Z,26.29
2018-06-10T04:57:20.488Z,27.24
2018-06-10T04:58:20.415Z,28.03
2018-06-10T05:00:13.212Z,29.03
2018-06-10T05:01:13.145Z,29.52
2018-06-10T05:03:05.937Z,30.15
2018-06-10T05:04:05.876Z,30.23
2018-06-10T05:05:58.677Z,30.67
2018-06-10T05:06:58.616Z,30.73
2018-06-10T05:08:51.429Z,30.93
2018-06-10T05:09:51.337Z,31.13
2018-06-10T05:11:44.140Z,31.53
2018-06-10T05:12:44.079Z,31.68
2018-06-10T05:14:36.883Z,31.91
2018-06-10T05:15:36.800Z,32.02
2018-06-10T05:17:29.585Z,32.07
2018-06-10T05:18:29.523Z,31.62
2018-06-10T05:20:22.330Z,31.22
2018-06-10T05:21:22.252Z,31.22
2018-06-10T05:23:15.045Z,31.85
2018-06-10T05:24:14.990Z,31.46
2018-06-10T05:26:07.824Z,31.65
2018-06-10T05:27:07.805Z,31.45
2018-06-10T05:29:00.556Z,31.97
2018-06-10T05:30:00.503Z,31.87
2018-06-10T05:31:53.308Z,31.67
2018-06-10T05:32:53.235Z,31.59
2018-06-10T05:34:46.026Z,31.95
2018-06-10T05:35:45.989Z,32.09
2018-06-10T05:37:38.766Z,32.14
2018-06-10T05:38:38.710Z,31.84
2018-06-10T05:40:31.516Z,32.36
2018-06-10T05:41:31.491Z,32.90
2018-06-10T05:43:24.260Z,33.84
2018-06-10T05:44:24.184Z,33.96
2018-06-10T05:46:16.994Z,33.63
2018-06-10T05:47:16.924Z,33.84
2018-06-10T05:49:09.751Z,33.20
2018-06-10T05:50:09.705Z,33.41
2018-06-10T05:52:02.512Z,33.78
2018-06-10T05:53:02.445Z,33.89
2018-06-10T05:54:55.265Z,33.89
2018-06-10T05:55:55.185Z,32.95
2018-06-10T05:57:47.996Z,31.01
2018-06-10T05:58:47.926Z,30.46
2018-06-10T06:00:40.784Z,29.78
2018-06-10T06:01:40.721Z,29.52
2018-06-10T06:03:33.525Z,29.12
2018-06-10T06:04:33.472Z,29.74
2018-06-10T06:06:26.316Z,31.00
2018-06-10T06:07:26.218Z,31.05
2018-06-10T06:09:19.028Z,30.70
2018-06-10T06:10:18.977Z,30.86
2018-06-10T06:12:11.790Z,32.44
2018-06-10T06:13:11.730Z,32.99
2018-06-10T06:15:05.409Z,33.70
2018-06-10T06:16:05.357Z,33.96
2018-06-10T06:17:58.169Z,33.87
2018-06-10T06:18:58.115Z,33.56
2018-06-10T06:20:50.902Z,33.06
2018-06-10T06:21:50.844Z,32.96
2018-06-10T06:23:43.664Z,33.21
2018-06-10T06:24:43.610Z,33.94
2018-06-10T06:26:36.413Z,34.53
2018-06-10T06:27:36.333Z,34.53
2018-06-10T06:29:29.129Z,35.46
2018-06-10T06:30:29.077Z,34.76
2018-06-10T06:32:21.870Z,33.82
2018-06-10T06:33:21.837Z,34.00
2018-06-10T06:35:14.598Z,34.98
2018-06-10T06:36:14.547Z,35.13
2018-06-10T06:38:07.357Z,35.29
2018-06-10T06:39:07.292Z,35.44
2018-06-10T06:41:00.108Z,34.86
2018-06-10T06:42:00.057Z,34.05
2018-06-10T06:43:52.872Z,34.14
2018-06-10T06:44:52.811Z,34.43
2018-06-10T06:46:45.597Z,34.94
2018-06-10T06:47:45.550Z,35.32
2018-06-10T06:49:38.359Z,35.83
2018-06-10T06:50:38.304Z,36.18
2018-06-10T06:52:31.175Z,36.21
2018-06-10T06:53:31.076Z,36.21
2018-06-10T06:55:23.866Z,35.80
2018-06-10T06:56:23.808Z,36.03
2018-06-10T06:58:16.600Z,36.52
2018-06-10T06:59:16.554Z,36.12
2018-06-10T07:01:09.369Z,36.13
2018-06-10T07:02:09.410Z,36.21
2018-06-10T07:04:02.152Z,36.38
2018-06-10T07:05:02.095Z,36.35
2018-06-10T07:06:54.898Z,36.89
2018-06-10T07:07:54.850Z,36.82
2018-06-10T07:09:47.687Z,36.57
2018-06-10T07:10:47.607Z,36.67
2018-06-10T07:12:40.417Z,36.37
2018-06-10T07:13:40.375Z,35.74
2018-06-10T07:15:33.188Z,35.98
2018-06-10T07:16:33.127Z,36.22
2018-06-10T07:18:25.952Z,36.69
2018-06-10T07:19:25.920Z,36.34
2018-06-10T07:21:18.750Z,36.57
2018-06-10T07:22:18.647Z,37.23
2018-06-10T07:24:11.463Z,37.56
2018-06-10T07:25:11.427Z,37.73
2018-06-10T07:27:04.303Z,37.53
2018-06-10T07:28:04.189Z,36.62
2018-06-10T07:29:56.993Z,36.23
2018-06-10T07:30:56.949Z,36.11
2018-06-10T07:32:49.863Z,35.29
2018-06-10T07:33:49.771Z,34.87
2018-06-10T07:35:42.569Z,35.00
2018-06-10T07:36:42.520Z,34.99
2018-06-10T07:38:35.360Z,34.86
2018-06-10T07:39:35.336Z,34.56
2018-06-10T07:41:28.110Z,35.52
2018-06-10T07:42:28.051Z,36.16
2018-06-10T07:44:20.853Z,36.62
2018-06-10T07:45:20.799Z,36.38
2018-06-10T07:47:13.607Z,36.06
2018-06-10T07:48:13.571Z,36.41
2018-06-10T07:50:06.366Z,36.74
2018-06-10T07:51:06.296Z,36.91
2018-06-10T07:52:59.110Z,37.35
2018-06-10T07:53:59.063Z,37.16
2018-06-10T07:55:51.854Z,36.11
2018-06-10T07:56:51.813Z,35.95
2018-06-10T07:58:44.643Z,35.85
2018-06-10T07:59:44.582Z,35.81
2018-06-10T08:01:37.398Z,36.02
2018-06-10T08:02:37.360Z,36.06
2018-06-10T08:04:30.147Z,36.52
2018-06-10T08:05:30.142Z,36.59
2018-06-10T08:07:22.914Z,37.75
2018-06-10T08:08:22.861Z,37.81
2018-06-10T08:10:15.671Z,37.23
2018-06-10T08:11:15.625Z,37.45
2018-06-10T08:13:08.454Z,36.77
2018-06-10T08:14:08.379Z,36.22
2018-06-10T08:16:01.195Z,35.34
2018-06-10T08:17:01.139Z,34.72
2018-06-10T08:18:54.108Z,34.05
2018-06-10T08:19:54.032Z,33.66
2018-06-10T08:21:46.859Z,33.50
2018-06-10T08:22:46.820Z,33.81
2018-06-10T08:24:39.631Z,34.03
2018-06-10T08:25:39.580Z,34.34
2018-06-10T08:27:32.592Z,34.38
2018-06-10T08:28:32.529Z,34.64
2018-06-10T08:30:25.437Z,34.88
2018-06-10T08:31:25.395Z,34.64
2018-06-10T08:33:18.210Z,34.45
2018-06-10T08:34:18.149Z,34.27
2018-06-10T08:36:10.955Z,35.00
2018-06-10T08:37:10.901Z,35.27
2018-06-10T08:39:03.717Z,35.65
2018-06-10T08:40:03.668Z,36.19
2018-06-10T08:41:56.466Z,36.27
2018-06-10T08:42:56.403Z,36.38
2018-06-10T08:44:49.273Z,36.87
2018-06-10T08:45:49.199Z,37.24
2018-06-10T08:47:42.085Z,37.27
2018-06-10T08:48:42.023Z,37.13
2018-06-10T08:50:34.895Z,36.91
2018-06-10T08:51:34.801Z,37.33
2018-06-10T08:53:27.640Z,36.93
2018-06-10T08:54:27.652Z,36.65
2018-06-10T08:56:20.416Z,36.23
2018-06-10T08:57:20.402Z,36.16
2018-06-10T08:59:13.250Z,35.95
2018-06-10T09:00:13.175Z,36.18
2018-06-10T09:02:06.016Z,35.84
2018-06-10T09:03:05.988Z,36.28
2018-06-10T09:04:58.796Z,36.23
2018-06-10T09:05:58.741Z,36.19
2018-06-10T09:07:51.556Z,36.06
2018-06-10T09:08:51.540Z,35.80
2018-06-10T09:10:44.337Z,35.92
2018-06-10T09:11:44.278Z,36.05
2018-06-10T09:13:37.103Z,36.27
2018-06-10T09:14:37.026Z,36.31
2018-06-10T09:16:29.863Z,36.12
2018-06-10T09:17:29.803Z,36.23
2018-06-10T09:19:22.686Z,36.37
2018-06-10T09:20:22.604Z,36.56
2018-06-10T09:22:15.473Z,36.52
2018-06-10T09:23:15.363Z,36.48
2018-06-10T09:25:08.216Z,36.74
2018-06-10T09:26:08.154Z,37.30
2018-06-10T09:28:01.020Z,37.49
2018-06-10T09:29:00.957Z,37.46
2018-06-10T09:30:53.940Z,37.68
2018-06-10T09:31:53.888Z,37.87
2018-06-10T09:33:46.701Z,38.31
2018-06-10T09:34:46.631Z,38.37
2018-06-10T09:36:39.493Z,37.80
2018-06-10T09:37:39.441Z,37.46
2018-06-10T09:39:32.305Z,37.63
2018-06-10T09:40:32.274Z,37.31
2018-06-10T09:42:25.056Z,36.68
2018-06-10T09:43:24.998Z,36.60
2018-06-10T09:45:17.859Z,36.15
2018-06-10T09:46:17.800Z,35.62
2018-06-10T09:48:10.719Z,35.34
2018-06-10T09:49:10.657Z,35.17
2018-06-10T09:51:03.527Z,34.72
2018-06-10T09:52:03.467Z,34.99
2018-06-10T09:53:56.360Z,36.15
2018-06-10T09:54:56.254Z,36.67
2018-06-10T09:56:49.092Z,37.42
2018-06-10T09:57:49.046Z,37.40
2018-06-10T09:59:41.955Z,37.13
2018-06-10T10:00:41.897Z,36.96
2018-06-10T10:02:34.754Z,36.53
2018-06-10T10:03:34.728Z,36.22
2018-06-10T10:05:27.523Z,36.23
2018-06-10T10:06:27.466Z,36.22
2018-06-10T10:08:20.319Z,36.44
2018-06-10T10:09:20.252Z,36.16
2018-06-10T10:11:13.073Z,35.31
2018-06-10T10:12:13.012Z,35.09
2018-06-10T10:14:05.890Z,35.02
2018-06-10T10:15:05.830Z,34.75
2018-06-10T10:16:58.648Z,34.83
2018-06-10T10:17:58.581Z,34.75
2018-06-10T10:19:51.434Z,35.00
2018-06-10T10:20:51.315Z,35.31
2018-06-10T10:22:44.107Z,35.76
2018-06-10T10:23:44.049Z,35.89
2018-06-10T10:25:36.883Z,35.80
2018-06-10T10:26:36.822Z,35.98
2018-06-10T10:28:29.639Z,36.43
2018-06-10T10:29:29.588Z,36.06
2018-06-10T10:31:22.484Z,35.64
2018-06-10T10:32:22.401Z,35.52
2018-06-10T10:34:15.213Z,34.01
2018-06-10T10:35:15.172Z,33.77
2018-06-10T10:37:08.039Z,34.01
2018-06-10T10:38:07.934Z,34.14
2018-06-10T10:40:00.786Z,34.33
2018-06-10T10:41:00.725Z,34.08
2018-06-10T10:42:53.544Z,33.65
2018-06-10T10:43:53.461Z,33.50
2018-06-10T10:45:46.277Z,33.38
2018-06-10T10:46:46.188Z,33.50
2018-06-10T10:48:38.971Z,33.63
2018-06-10T10:49:38.923Z,33.71
2018-06-10T10:51:31.731Z,33.60
2018-06-10T10:52:31.684Z,33.62
2018-06-10T10:54:24.470Z,33.44
2018-06-10T10:55:24.416Z,33.43
2018-06-10T10:57:17.295Z,33.34
2018-06-10T10:58:17.203Z,33.11
2018-06-10T11:00:09.989Z,33.07
2018-06-10T11:01:09.933Z,33.24
2018-06-10T11:03:02.827Z,32.95
2018-06-10T11:04:02.742Z,32.81
2018-06-10T11:05:55.730Z,32.78
2018-06-10T11:06:55.540Z,32.91
2018-06-10T11:08:48.352Z,33.37
2018-06-10T11:09:48.293Z,33.59
2018-06-10T11:11:41.254Z,34.00
2018-06-10T11:12:41.201Z,34.33
2018-06-10T11:14:34.236Z,34.56
2018-06-10T11:15:34.240Z,34.76
2018-06-10T11:17:27.023Z,34.71
2018-06-10T11:18:26.954Z,34.42
2018-06-10T11:20:19.787Z,33.62
2018-06-10T11:21:19.723Z,33.22
2018-06-10T11:23:12.605Z,32.80
2018-06-10T11:24:12.495Z,32.50
2018-06-10T11:26:05.316Z,32.22
2018-06-10T11:27:05.290Z,32.61
2018-06-10T11:28:58.138Z,33.09
2018-06-10T11:29:58.093Z,33.20
2018-06-10T11:31:51.005Z,33.43
2018-06-10T11:32:50.951Z,33.70
2018-06-10T11:34:43.766Z,34.01
2018-06-10T11:35:43.749Z,33.99
2018-06-10T11:37:36.563Z,33.78
2018-06-10T11:38:36.516Z,33.81
2018-06-10T11:40:29.300Z,33.60
2018-06-10T11:41:29.227Z,33.70
2018-06-10T11:43:22.032Z,33.78
2018-06-10T11:44:21.966Z,33.72
2018-06-10T11:46:14.788Z,33.38
2018-06-10T11:47:14.705Z,33.17
2018-06-10T11:49:07.489Z,32.83
2018-06-10T11:50:07.438Z,32.91
2018-06-10T11:52:00.321Z,33.03
2018-06-10T11:53:00.200Z,33.14
2018-06-10T11:54:53.016Z,33.49
2018-06-10T11:55:52.953Z,33.56
2018-06-10T11:57:45.769Z,33.26
2018-06-10T11:58:46.250Z,33.21
2018-06-10T12:00:38.487Z,33.15
2018-06-10T12:01:38.436Z,33.07
2018-06-10T12:03:31.334Z,32.96
2018-06-10T12:04:31.224Z,32.85
2018-06-10T12:06:24.014Z,32.71
2018-06-10T12:07:23.964Z,32.41
2018-06-10T12:09:16.837Z,32.27
2018-06-10T12:10:16.714Z,32.24
2018-06-10T12:12:09.508Z,32.03
2018-06-10T12:13:09.441Z,31.91
2018-06-10T12:15:02.242Z,31.92
2018-06-10T12:16:02.178Z,31.87
2018-06-10T12:17:55.003Z,31.54
2018-06-10T12:18:54.935Z,31.34
2018-06-10T12:20:47.758Z,30.90
2018-06-10T12:21:47.688Z,30.45
2018-06-10T12:23:40.511Z,30.00
2018-06-10T12:24:40.423Z,29.84
2018-06-10T12:26:33.237Z,28.98
2018-06-10T12:27:33.180Z,28.45
2018-06-10T12:29:26.057Z,26.91
2018-06-10T12:30:25.946Z,26.39
2018-06-10T12:32:18.772Z,25.69
2018-06-10T12:33:18.714Z,25.46
2018-06-10T12:35:11.513Z,25.38
2018-06-10T12:36:11.430Z,25.26
2018-06-10T12:38:04.460Z,24.93
2018-06-10T12:39:04.153Z,24.90
2018-06-10T12:40:56.945Z,24.94
2018-06-10T12:41:56.889Z,24.70
2018-06-10T12:43:49.682Z,24.75
2018-06-10T12:44:49.626Z,24.75
2018-06-10T12:46:42.400Z,24.75
2018-06-10T12:47:42.345Z,24.61
2018-06-10T12:49:35.169Z,24.89
2018-06-10T12:50:35.069Z,25.04
2018-06-10T12:52:27.877Z,25.45
2018-06-10T12:53:27.804Z,25.56
2018-06-10T12:55:20.606Z,25.56
2018-06-10T12:56:20.527Z,25.75
2018-06-10T12:58:13.308Z,26.08
2018-06-10T12:59:13.240Z,25.91
2018-06-10T13:01:06.026Z,26.11
2018-06-10T13:02:05.965Z,26.23
2018-06-10T13:03:58.759Z,26.46
2018-06-10T13:04:58.689Z,26.56
2018-06-10T13:06:51.477Z,26.76
2018-06-10T13:07:51.420Z,26.69
2018-06-10T13:11:15.750Z,26.51
2018-06-10T13:12:15.668Z,26.65
2018-06-10T13:14:08.453Z,26.91
2018-06-10T13:15:08.398Z,26.83
2018-06-10T13:17:01.222Z,26.91
2018-06-10T13:18:01.175Z,27.02
2018-06-10T13:19:53.967Z,27.16
2018-06-10T13:20:53.891Z,27.38
2018-06-10T13:22:46.636Z,27.72
2018-06-10T13:23:46.571Z,27.88
2018-06-10T13:25:39.382Z,28.18
2018-06-10T13:26:39.311Z,28.33
2018-06-10T13:28:32.130Z,28.51
2018-06-10T13:29:32.049Z,28.58
2018-06-10T13:31:24.870Z,28.67
2018-06-10T13:32:24.805Z,28.72
2018-06-10T13:34:17.632Z,28.50
2018-06-10T13:35:17.557Z,28.50
2018-06-10T13:37:10.338Z,28.36
2018-06-10T13:38:10.294Z,28.30
2018-06-10T13:40:04.585Z,28.18
2018-06-10T13:41:03.217Z,27.99
2018-06-10T13:42:56.984Z,27.93
2018-06-10T13:43:56.718Z,27.88
2018-06-10T13:45:49.530Z,27.88
2018-06-10T13:46:49.448Z,27.88
2018-06-10T13:48:42.240Z,27.90
2018-06-10T13:49:42.172Z,27.87
2018-06-10T13:51:35.019Z,27.96
2018-06-10T13:52:34.953Z,28.01
2018-06-10T13:54:27.750Z,28.03
2018-06-10T13:55:27.646Z,28.05
2018-06-10T13:57:20.497Z,27.95
2018-06-10T13:58:20.404Z,27.99
2018-06-10T14:00:13.238Z,28.01
2018-06-10T14:01:13.152Z,28.06
2018-06-10T14:03:05.973Z,27.96
2018-06-10T14:04:05.921Z,27.95
2018-06-10T14:05:58.732Z,28.09
2018-06-10T14:06:58.652Z,28.17
2018-06-10T14:08:51.457Z,28.43
2018-06-10T14:09:51.402Z,28.46
2018-06-10T14:11:44.187Z,28.55
2018-06-10T14:12:44.119Z,28.65
2018-06-10T14:14:36.961Z,28.74
2018-06-10T14:15:36.863Z,28.74
2018-06-10T14:17:29.672Z,28.67
2018-06-10T14:18:29.605Z,28.76
2018-06-10T14:20:22.392Z,28.50
2018-06-10T14:21:22.312Z,28.23
2018-06-10T14:23:15.172Z,28.08
2018-06-10T14:24:15.104Z,28.13
2018-06-10T14:26:07.916Z,28.28
2018-06-10T14:27:07.839Z,28.21
2018-06-10T14:29:00.704Z,28.13
2018-06-10T14:30:00.604Z,28.24
2018-06-10T14:31:53.411Z,28.28
2018-06-10T14:32:53.340Z,28.40
2018-06-10T14:34:46.131Z,28.55
2018-06-10T14:35:46.075Z,28.57
2018-06-10T14:37:38.937Z,28.40
2018-06-10T14:38:38.877Z,28.51
2018-06-10T14:40:31.602Z,28.32
2018-06-10T14:41:31.536Z,28.30
2018-06-10T14:43:24.359Z,28.43
2018-06-10T14:44:24.292Z,28.51
2018-06-10T14:46:17.108Z,28.58
2018-06-10T14:47:17.034Z,28.60
2018-06-10T14:49:09.856Z,28.54
2018-06-10T14:50:09.775Z,28.55
2018-06-10T14:52:02.556Z,28.15
2018-06-10T14:53:02.497Z,28.11
2018-06-10T14:54:55.320Z,27.91
2018-06-10T14:55:55.223Z,27.78
2018-06-10T14:57:48.075Z,27.34
2018-06-10T14:58:47.969Z,27.15
2018-06-10T15:00:40.763Z,27.09
2018-06-10T15:01:40.710Z,26.93
2018-06-10T15:03:33.649Z,26.68
2018-06-10T15:04:33.439Z,26.88
2018-06-10T15:06:26.268Z,26.73
2018-06-10T15:07:26.176Z,26.76
2018-06-10T15:09:18.994Z,26.54
2018-06-10T15:10:18.940Z,26.51
2018-06-10T15:12:11.718Z,26.32
2018-06-10T15:13:11.654Z,26.36
2018-06-10T15:15:04.589Z,26.16
2018-06-10T15:16:04.414Z,25.94
2018-06-10T15:17:57.232Z,25.83
2018-06-10T15:18:57.139Z,25.63
2018-06-10T15:20:50.012Z,25.69
2018-06-10T15:21:49.887Z,25.75
2018-06-10T15:23:42.703Z,24.90
2018-06-10T15:24:42.624Z,24.05
2018-06-10T15:26:35.437Z,23.31
2018-06-10T15:27:35.371Z,22.70
2018-06-10T15:29:27.333Z,22.27
2018-06-10T15:30:27.180Z,22.06
2018-06-10T15:32:20.486Z,22.14
2018-06-10T15:33:20.424Z,22.27
2018-06-10T15:35:13.277Z,22.54
2018-06-10T15:36:13.197Z,22.54
2018-06-10T15:38:04.971Z,22.51
2018-06-10T15:39:04.905Z,22.30
2018-06-10T15:40:57.744Z,21.90
2018-06-10T15:41:57.671Z,21.64
2018-06-10T15:43:50.493Z,21.26
2018-06-10T15:44:50.428Z,21.28
2018-06-10T15:46:43.234Z,21.37
2018-06-10T15:47:43.166Z,21.42
2018-06-10T15:49:35.996Z,21.48
2018-06-10T15:50:35.904Z,21.48
2018-06-10T15:52:28.694Z,21.73
2018-06-10T15:53:28.616Z,21.70
2018-06-10T15:55:21.432Z,21.83
2018-06-10T15:56:21.357Z,21.98
2018-06-10T15:58:14.170Z,22.15
2018-06-10T15:59:14.114Z,22.17
2018-06-10T16:01:06.937Z,22.26
2018-06-10T16:02:06.820Z,22.39
2018-06-10T16:03:59.623Z,22.30
2018-06-10T16:04:59.569Z,22.46
2018-06-10T16:06:52.379Z,22.44
2018-06-10T16:07:52.302Z,22.39
2018-06-10T16:09:45.080Z,22.57
2018-06-10T16:10:45.024Z,22.45
2018-06-10T16:12:37.897Z,21.94
2018-06-10T16:13:37.802Z,21.98
2018-06-10T16:15:30.572Z,21.94
2018-06-10T16:16:30.511Z,21.96
2018-06-10T16:18:23.371Z,22.24
2018-06-10T16:19:23.300Z,22.30
2018-06-10T16:21:16.168Z,22.45
2018-06-10T16:22:16.041Z,22.48
2018-06-10T16:24:08.835Z,22.86
2018-06-10T16:25:08.754Z,22.99
2018-06-10T16:27:01.557Z,23.21
2018-06-10T16:28:01.481Z,23.16
2018-06-10T16:29:54.306Z,23.47
2018-06-10T16:30:54.239Z,23.60
2018-06-10T16:32:47.182Z,23.72
2018-06-10T16:33:47.075Z,23.62
2018-06-10T16:35:39.917Z,23.49
2018-06-10T16:36:39.815Z,23.42
2018-06-10T16:38:32.654Z,23.26
2018-06-10T16:39:32.599Z,23.01
2018-06-10T16:41:25.578Z,23.14
2018-06-10T16:42:25.329Z,23.18
2018-06-10T16:44:18.183Z,23.06
2018-06-10T16:45:18.049Z,22.99
2018-06-10T16:47:10.887Z,23.21
2018-06-10T16:48:10.779Z,23.25
2018-06-10T16:50:03.556Z,23.04
2018-06-10T16:51:03.488Z,23.03
2018-06-10T16:52:56.356Z,22.76
2018-06-10T16:53:56.235Z,22.99
2018-06-10T16:55:49.048Z,23.00
2018-06-10T16:56:49.004Z,22.97
2018-06-10T16:58:41.848Z,23.14
2018-06-10T16:59:41.769Z,23.15
2018-06-10T17:01:34.620Z,22.99
2018-06-10T17:02:34.529Z,22.85
2018-06-10T17:04:27.330Z,23.07
2018-06-10T17:05:27.265Z,23.16
2018-06-10T17:07:20.105Z,23.16
2018-06-10T17:08:20.033Z,22.96
2018-06-10T17:10:12.814Z,22.81
2018-06-10T17:11:12.756Z,22.79
2018-06-10T17:13:05.618Z,22.81
2018-06-10T17:14:05.544Z,22.70
2018-06-10T17:15:58.345Z,22.57
2018-06-10T17:16:58.285Z,22.56
2018-06-10T17:18:51.094Z,22.63
2018-06-10T17:19:51.014Z,22.63
2018-06-10T17:21:43.880Z,22.74
2018-06-10T17:22:43.792Z,22.76
2018-06-10T17:24:36.557Z,22.51
2018-06-10T17:25:36.494Z,22.56
2018-06-10T17:27:29.349Z,22.35
2018-06-10T17:28:29.282Z,22.33
2018-06-10T17:30:22.097Z,22.35
2018-06-10T17:31:22.065Z,22.39
2018-06-10T17:33:14.902Z,22.30
2018-06-10T17:34:14.762Z,22.24
2018-06-10T17:36:07.558Z,22.41
2018-06-10T17:37:07.494Z,22.42
2018-06-10T17:39:00.375Z,22.60
2018-06-10T17:40:00.305Z,22.63
2018-06-10T17:41:53.086Z,22.78
2018-06-10T17:42:53.013Z,22.78
2018-06-10T17:44:45.890Z,22.56
2018-06-10T17:45:45.761Z,22.70
2018-06-10T17:47:38.618Z,22.69
2018-06-10T17:48:38.502Z,22.84
2018-06-10T17:50:31.276Z,22.70
2018-06-10T17:51:31.216Z,22.52
2018-06-10T17:53:24.038Z,22.42
2018-06-10T17:54:23.950Z,22.54
2018-06-10T17:56:16.790Z,22.63
2018-06-10T17:57:16.674Z,22.63
2018-06-10T17:59:09.599Z,22.72
2018-06-10T18:00:09.481Z,22.75
2018-06-10T18:02:02.281Z,22.51
2018-06-10T18:03:02.208Z,22.51
2018-06-10T18:04:55.338Z,22.63
2018-06-10T18:05:54.940Z,22.59
2018-06-10T18:07:47.758Z,22.72
2018-06-10T18:08:47.666Z,22.78
2018-06-10T18:10:41.373Z,22.82
2018-06-10T18:11:41.296Z,22.78
2018-06-10T18:13:34.137Z,22.63
2018-06-10T18:14:34.051Z,22.67
2018-06-10T18:16:27.387Z,22.66
2018-06-10T18:17:27.528Z,22.61
2018-06-10T18:19:20.130Z,22.51
2018-06-10T18:20:20.066Z,22.52
2018-06-10T18:22:12.931Z,22.56
2018-06-10T18:23:12.786Z,22.54
2018-06-10T18:25:05.673Z,22.48
2018-06-10T18:26:05.561Z,22.42
2018-06-10T18:27:58.369Z,22.39
2018-06-10T18:28:58.280Z,22.42
2018-06-10T18:30:51.116Z,22.26
2018-06-10T18:31:51.055Z,22.42
2018-06-10T18:33:43.923Z,22.39